sensor_id;sensor_type;location;lat;lon;timestamp;P1;durP1;ratioP1;P2;durP2;ratioP2
21505;SDS011;10914;48.886;9.394;2023-04-24T00:00:20;21.90;;;20.90;;
21505;SDS011;10914;48.886;9.394;2023-04-24T00:02:45;23.63;;;22.50;;
21505;SDS011;10914;48.886;9.394;2023-04-24T00:05:14;22.52;;;21.40;;
21505;SDS011;10914;48.886;9.394;2023-04-24T00:07:40;22.92;;;21.63;;
21505;SDS011;10914;48.886;9.394;2023-04-24T00:10:05;21.50;;;20.52;;
21505;SDS011;10914;48.886;9.394;2023-04-24T00:12:31;22.42;;;21.33;;
21505;SDS011;10914;48.886;9.394;2023-04-24T00:14:56;22.13;;;21.13;;
21505;SDS011;10914;48.886;9.394;2023-04-24T00:17:21;22.88;;;21.58;;
21505;SDS011;10914;48.886;9.394;2023-04-24T00:19:47;22.65;;;21.63;;
21505;SDS011;10914;48.886;9.394;2023-04-24T00:22:13;21.08;;;20.10;;
21505;SDS011;10914;48.886;9.394;2023-04-24T00:24:38;21.80;;;20.60;;
21505;SDS011;10914;48.886;9.394;2023-04-24T00:27:03;21.45;;;20.42;;
21505;SDS011;10914;48.886;9.394;2023-04-24T00:29:28;22.27;;;21.17;;
21505;SDS011;10914;48.886;9.394;2023-04-24T00:31:54;21.80;;;20.80;;
21505;SDS011;10914;48.886;9.394;2023-04-24T00:34:19;21.42;;;20.42;;
21505;SDS011;10914;48.886;9.394;2023-04-24T00:36:44;22.50;;;21.40;;
21505;SDS011;10914;48.886;9.394;2023-04-24T00:39:10;21.40;;;20.40;;
21505;SDS011;10914;48.886;9.394;2023-04-24T00:41:35;21.23;;;20.23;;
21505;SDS011;10914;48.886;9.394;2023-04-24T00:44:00;21.75;;;20.65;;
21505;SDS011;10914;48.886;9.394;2023-04-24T00:46:25;22.23;;;21.20;;
21505;SDS011;10914;48.886;9.394;2023-04-24T00:48:50;21.95;;;20.85;;
21505;SDS011;10914;48.886;9.394;2023-04-24T00:51:16;21.33;;;20.35;;
21505;SDS011;10914;48.886;9.394;2023-04-24T00:53:41;22.30;;;21.08;;
21505;SDS011;10914;48.886;9.394;2023-04-24T00:56:07;21.50;;;20.40;;
21505;SDS011;10914;48.886;9.394;2023-04-24T00:58:32;21.05;;;20.05;;
21505;SDS011;10914;48.886;9.394;2023-04-24T01:00:57;21.83;;;20.83;;
21505;SDS011;10914;48.886;9.394;2023-04-24T01:03:24;21.17;;;20.17;;
21505;SDS011;10914;48.886;9.394;2023-04-24T01:05:51;20.58;;;19.67;;
21505;SDS011;10914;48.886;9.394;2023-04-24T01:08:17;21.00;;;19.92;;
21505;SDS011;10914;48.886;9.394;2023-04-24T01:10:42;21.35;;;20.33;;
21505;SDS011;10914;48.886;9.394;2023-04-24T01:13:08;22.35;;;21.25;;
21505;SDS011;10914;48.886;9.394;2023-04-24T01:15:34;21.57;;;20.47;;
21505;SDS011;10914;48.886;9.394;2023-04-24T01:17:59;21.50;;;20.50;;
21505;SDS011;10914;48.886;9.394;2023-04-24T01:20:24;21.77;;;20.77;;
21505;SDS011;10914;48.886;9.394;2023-04-24T01:22:51;22.05;;;21.05;;
21505;SDS011;10914;48.886;9.394;2023-04-24T01:25:16;21.95;;;20.95;;
21505;SDS011;10914;48.886;9.394;2023-04-24T01:27:41;21.90;;;20.90;;
21505;SDS011;10914;48.886;9.394;2023-04-24T01:30:07;22.37;;;21.17;;
21505;SDS011;10914;48.886;9.394;2023-04-24T01:32:32;22.40;;;21.40;;
21505;SDS011;10914;48.886;9.394;2023-04-24T01:34:58;21.70;;;20.60;;
21505;SDS011;10914;48.886;9.394;2023-04-24T01:37:23;23.02;;;21.92;;
21505;SDS011;10914;48.886;9.394;2023-04-24T01:39:48;21.52;;;20.52;;
21505;SDS011;10914;48.886;9.394;2023-04-24T01:42:14;21.60;;;20.60;;
21505;SDS011;10914;48.886;9.394;2023-04-24T01:44:39;21.27;;;20.27;;
21505;SDS011;10914;48.886;9.394;2023-04-24T01:47:05;21.42;;;20.42;;
21505;SDS011;10914;48.886;9.394;2023-04-24T01:49:30;21.90;;;20.70;;
21505;SDS011;10914;48.886;9.394;2023-04-24T01:51:56;21.92;;;20.83;;
21505;SDS011;10914;48.886;9.394;2023-04-24T01:54:21;21.67;;;20.57;;
21505;SDS011;10914;48.886;9.394;2023-04-24T01:56:47;21.13;;;20.02;;
21505;SDS011;10914;48.886;9.394;2023-04-24T01:59:12;21.20;;;20.20;;
21505;SDS011;10914;48.886;9.394;2023-04-24T02:01:37;21.08;;;19.98;;
21505;SDS011;10914;48.886;9.394;2023-04-24T02:04:06;21.10;;;20.10;;
21505;SDS011;10914;48.886;9.394;2023-04-24T02:06:31;21.38;;;20.30;;
21505;SDS011;10914;48.886;9.394;2023-04-24T02:08:57;22.38;;;21.27;;
21505;SDS011;10914;48.886;9.394;2023-04-24T02:11:23;22.95;;;21.75;;
21505;SDS011;10914;48.886;9.394;2023-04-24T02:13:48;23.02;;;21.65;;
21505;SDS011;10914;48.886;9.394;2023-04-24T02:16:13;22.70;;;21.67;;
21505;SDS011;10914;48.886;9.394;2023-04-24T02:18:38;22.20;;;21.20;;
21505;SDS011;10914;48.886;9.394;2023-04-24T02:21:04;22.40;;;21.30;;
21505;SDS011;10914;48.886;9.394;2023-04-24T02:23:29;22.73;;;21.42;;
21505;SDS011;10914;48.886;9.394;2023-04-24T02:25:54;22.77;;;21.67;;
21505;SDS011;10914;48.886;9.394;2023-04-24T02:28:20;22.83;;;21.73;;
21505;SDS011;10914;48.886;9.394;2023-04-24T02:30:45;21.20;;;20.30;;
21505;SDS011;10914;48.886;9.394;2023-04-24T02:33:11;21.47;;;20.37;;
21505;SDS011;10914;48.886;9.394;2023-04-24T02:35:36;21.50;;;20.42;;
21505;SDS011;10914;48.886;9.394;2023-04-24T02:38:01;22.10;;;21.00;;
21505;SDS011;10914;48.886;9.394;2023-04-24T02:40:27;22.27;;;21.08;;
21505;SDS011;10914;48.886;9.394;2023-04-24T02:42:52;22.40;;;20.98;;
21505;SDS011;10914;48.886;9.394;2023-04-24T02:45:17;20.83;;;19.83;;
21505;SDS011;10914;48.886;9.394;2023-04-24T02:47:42;21.33;;;20.20;;
21505;SDS011;10914;48.886;9.394;2023-04-24T02:50:07;21.73;;;20.63;;
21505;SDS011;10914;48.886;9.394;2023-04-24T02:52:33;22.70;;;21.70;;
21505;SDS011;10914;48.886;9.394;2023-04-24T02:54:58;22.27;;;21.05;;
21505;SDS011;10914;48.886;9.394;2023-04-24T02:57:23;22.05;;;21.05;;
21505;SDS011;10914;48.886;9.394;2023-04-24T02:59:48;21.87;;;20.77;;
21505;SDS011;10914;48.886;9.394;2023-04-24T03:02:13;22.13;;;20.48;;
21505;SDS011;10914;48.886;9.394;2023-04-24T03:04:39;21.37;;;20.37;;
21505;SDS011;10914;48.886;9.394;2023-04-24T03:07:04;21.15;;;20.15;;
21505;SDS011;10914;48.886;9.394;2023-04-24T03:09:30;21.23;;;20.10;;
21505;SDS011;10914;48.886;9.394;2023-04-24T03:11:55;22.15;;;21.05;;
21505;SDS011;10914;48.886;9.394;2023-04-24T03:14:21;21.95;;;20.95;;
21505;SDS011;10914;48.886;9.394;2023-04-24T03:16:46;22.57;;;21.47;;
21505;SDS011;10914;48.886;9.394;2023-04-24T03:19:11;22.07;;;20.93;;
21505;SDS011;10914;48.886;9.394;2023-04-24T03:21:37;21.35;;;20.35;;
21505;SDS011;10914;48.886;9.394;2023-04-24T03:24:05;22.92;;;21.63;;
21505;SDS011;10914;48.886;9.394;2023-04-24T03:26:30;22.58;;;21.58;;
21505;SDS011;10914;48.886;9.394;2023-04-24T03:28:56;22.47;;;21.37;;
21505;SDS011;10914;48.886;9.394;2023-04-24T03:31:21;22.90;;;21.80;;
21505;SDS011;10914;48.886;9.394;2023-04-24T03:33:47;22.70;;;21.50;;
21505;SDS011;10914;48.886;9.394;2023-04-24T03:36:12;22.85;;;21.75;;
21505;SDS011;10914;48.886;9.394;2023-04-24T03:38:37;22.90;;;21.90;;
21505;SDS011;10914;48.886;9.394;2023-04-24T03:41:02;25.43;;;23.87;;
21505;SDS011;10914;48.886;9.394;2023-04-24T03:43:27;25.25;;;24.05;;
21505;SDS011;10914;48.886;9.394;2023-04-24T03:45:53;25.25;;;24.00;;
21505;SDS011;10914;48.886;9.394;2023-04-24T03:48:18;29.27;;;27.75;;
21505;SDS011;10914;48.886;9.394;2023-04-24T03:50:43;24.25;;;22.90;;
21505;SDS011;10914;48.886;9.394;2023-04-24T03:53:08;24.20;;;23.10;;
21505;SDS011;10914;48.886;9.394;2023-04-24T03:55:33;25.77;;;24.47;;
21505;SDS011;10914;48.886;9.394;2023-04-24T03:57:59;26.00;;;24.80;;
21505;SDS011;10914;48.886;9.394;2023-04-24T04:00:24;26.05;;;24.85;;
21505;SDS011;10914;48.886;9.394;2023-04-24T04:02:49;25.77;;;24.48;;
21505;SDS011;10914;48.886;9.394;2023-04-24T04:05:15;25.52;;;24.17;;
21505;SDS011;10914;48.886;9.394;2023-04-24T04:07:41;24.80;;;23.63;;
21505;SDS011;10914;48.886;9.394;2023-04-24T04:10:06;25.55;;;24.35;;
21505;SDS011;10914;48.886;9.394;2023-04-24T04:12:32;25.13;;;23.92;;
21505;SDS011;10914;48.886;9.394;2023-04-24T04:14:57;26.88;;;25.45;;
21505;SDS011;10914;48.886;9.394;2023-04-24T04:17:22;26.77;;;25.37;;
21505;SDS011;10914;48.886;9.394;2023-04-24T04:19:48;26.00;;;24.60;;
21505;SDS011;10914;48.886;9.394;2023-04-24T04:22:13;27.42;;;26.02;;
21505;SDS011;10914;48.886;9.394;2023-04-24T04:24:38;27.70;;;26.17;;
21505;SDS011;10914;48.886;9.394;2023-04-24T04:27:05;24.35;;;23.25;;
21505;SDS011;10914;48.886;9.394;2023-04-24T04:29:30;25.65;;;24.02;;
21505;SDS011;10914;48.886;9.394;2023-04-24T04:31:56;25.45;;;24.13;;
21505;SDS011;10914;48.886;9.394;2023-04-24T04:34:21;24.92;;;23.63;;
21505;SDS011;10914;48.886;9.394;2023-04-24T04:36:47;26.60;;;25.30;;
21505;SDS011;10914;48.886;9.394;2023-04-24T04:39:13;24.95;;;23.65;;
21505;SDS011;10914;48.886;9.394;2023-04-24T04:41:40;26.10;;;24.70;;
21505;SDS011;10914;48.886;9.394;2023-04-24T04:44:05;36.80;;;34.90;;
21505;SDS011;10914;48.886;9.394;2023-04-24T04:46:31;27.10;;;25.70;;
21505;SDS011;10914;48.886;9.394;2023-04-24T04:48:58;26.70;;;25.50;;
21505;SDS011;10914;48.886;9.394;2023-04-24T04:51:24;28.23;;;26.92;;
21505;SDS011;10914;48.886;9.394;2023-04-24T04:53:49;26.98;;;25.52;;
21505;SDS011;10914;48.886;9.394;2023-04-24T04:56:14;23.00;;;21.80;;
21505;SDS011;10914;48.886;9.394;2023-04-24T04:58:40;23.00;;;21.90;;
21505;SDS011;10914;48.886;9.394;2023-04-24T05:01:05;24.77;;;23.57;;
21505;SDS011;10914;48.886;9.394;2023-04-24T05:03:31;25.00;;;23.80;;
21505;SDS011;10914;48.886;9.394;2023-04-24T05:05:57;25.08;;;23.63;;
21505;SDS011;10914;48.886;9.394;2023-04-24T05:08:22;26.33;;;25.13;;
21505;SDS011;10914;48.886;9.394;2023-04-24T05:10:47;26.00;;;24.60;;
21505;SDS011;10914;48.886;9.394;2023-04-24T05:13:12;27.90;;;26.60;;
21505;SDS011;10914;48.886;9.394;2023-04-24T05:15:38;26.38;;;25.02;;
21505;SDS011;10914;48.886;9.394;2023-04-24T05:18:03;26.50;;;25.10;;
21505;SDS011;10914;48.886;9.394;2023-04-24T05:20:28;25.75;;;24.45;;
21505;SDS011;10914;48.886;9.394;2023-04-24T05:22:53;31.52;;;29.92;;
21505;SDS011;10914;48.886;9.394;2023-04-24T05:25:18;29.10;;;27.70;;
21505;SDS011;10914;48.886;9.394;2023-04-24T05:27:45;26.52;;;25.13;;
21505;SDS011;10914;48.886;9.394;2023-04-24T05:30:11;26.85;;;25.45;;
21505;SDS011;10914;48.886;9.394;2023-04-24T05:32:37;27.55;;;26.15;;
21505;SDS011;10914;48.886;9.394;2023-04-24T05:35:02;26.52;;;25.25;;
21505;SDS011;10914;48.886;9.394;2023-04-24T05:37:27;25.20;;;24.00;;
21505;SDS011;10914;48.886;9.394;2023-04-24T05:39:52;25.20;;;23.83;;
21505;SDS011;10914;48.886;9.394;2023-04-24T05:42:18;26.00;;;24.65;;
21505;SDS011;10914;48.886;9.394;2023-04-24T05:44:43;25.30;;;24.00;;
21505;SDS011;10914;48.886;9.394;2023-04-24T05:47:08;24.48;;;23.33;;
21505;SDS011;10914;48.886;9.394;2023-04-24T05:49:33;24.90;;;23.60;;
21505;SDS011;10914;48.886;9.394;2023-04-24T05:51:58;24.55;;;23.23;;
21505;SDS011;10914;48.886;9.394;2023-04-24T05:54:24;24.50;;;23.20;;
21505;SDS011;10914;48.886;9.394;2023-04-24T05:56:49;25.70;;;24.38;;
21505;SDS011;10914;48.886;9.394;2023-04-24T05:59:15;24.75;;;23.55;;
21505;SDS011;10914;48.886;9.394;2023-04-24T06:01:40;24.40;;;23.20;;
21505;SDS011;10914;48.886;9.394;2023-04-24T06:04:05;24.23;;;23.07;;
21505;SDS011;10914;48.886;9.394;2023-04-24T06:06:31;23.80;;;22.63;;
21505;SDS011;10914;48.886;9.394;2023-04-24T06:08:57;24.33;;;23.10;;
21505;SDS011;10914;48.886;9.394;2023-04-24T06:11:23;25.10;;;23.70;;
21505;SDS011;10914;48.886;9.394;2023-04-24T06:13:49;25.85;;;24.38;;
21505;SDS011;10914;48.886;9.394;2023-04-24T06:16:15;25.63;;;24.30;;
21505;SDS011;10914;48.886;9.394;2023-04-24T06:18:40;26.67;;;25.20;;
21505;SDS011;10914;48.886;9.394;2023-04-24T06:21:05;26.27;;;24.98;;
21505;SDS011;10914;48.886;9.394;2023-04-24T06:23:31;25.77;;;24.35;;
21505;SDS011;10914;48.886;9.394;2023-04-24T06:25:58;26.13;;;24.65;;
21505;SDS011;10914;48.886;9.394;2023-04-24T06:28:23;25.38;;;24.08;;
21505;SDS011;10914;48.886;9.394;2023-04-24T06:30:48;24.33;;;23.02;;
21505;SDS011;10914;48.886;9.394;2023-04-24T06:33:13;24.47;;;23.20;;
21505;SDS011;10914;48.886;9.394;2023-04-24T06:35:39;25.17;;;23.70;;
21505;SDS011;10914;48.886;9.394;2023-04-24T06:38:04;25.65;;;24.35;;
21505;SDS011;10914;48.886;9.394;2023-04-24T06:40:29;26.60;;;25.23;;
21505;SDS011;10914;48.886;9.394;2023-04-24T06:42:55;28.67;;;27.20;;
21505;SDS011;10914;48.886;9.394;2023-04-24T06:45:20;30.27;;;28.65;;
21505;SDS011;10914;48.886;9.394;2023-04-24T06:47:46;30.00;;;28.50;;
21505;SDS011;10914;48.886;9.394;2023-04-24T06:50:11;29.17;;;27.67;;
21505;SDS011;10914;48.886;9.394;2023-04-24T06:52:36;28.10;;;26.50;;
21505;SDS011;10914;48.886;9.394;2023-04-24T06:55:02;25.80;;;24.50;;
21505;SDS011;10914;48.886;9.394;2023-04-24T06:57:28;24.17;;;22.95;;
21505;SDS011;10914;48.886;9.394;2023-04-24T06:59:53;23.58;;;22.38;;
21505;SDS011;10914;48.886;9.394;2023-04-24T07:02:18;23.10;;;21.80;;
21505;SDS011;10914;48.886;9.394;2023-04-24T07:04:43;23.05;;;21.83;;
21505;SDS011;10914;48.886;9.394;2023-04-24T07:07:08;23.30;;;21.90;;
21505;SDS011;10914;48.886;9.394;2023-04-24T07:09:37;23.02;;;21.92;;
21505;SDS011;10914;48.886;9.394;2023-04-24T07:12:05;22.33;;;21.10;;
21505;SDS011;10914;48.886;9.394;2023-04-24T07:14:32;21.63;;;20.52;;
21505;SDS011;10914;48.886;9.394;2023-04-24T07:16:57;22.05;;;20.85;;
21505;SDS011;10914;48.886;9.394;2023-04-24T07:19:23;22.15;;;21.05;;
21505;SDS011;10914;48.886;9.394;2023-04-24T07:21:48;21.40;;;20.30;;
21505;SDS011;10914;48.886;9.394;2023-04-24T07:24:13;22.25;;;21.13;;
21505;SDS011;10914;48.886;9.394;2023-04-24T07:26:38;22.17;;;21.08;;
21505;SDS011;10914;48.886;9.394;2023-04-24T07:29:04;22.42;;;21.23;;
21505;SDS011;10914;48.886;9.394;2023-04-24T07:31:30;22.38;;;21.27;;
21505;SDS011;10914;48.886;9.394;2023-04-24T07:33:56;22.30;;;21.10;;
21505;SDS011;10914;48.886;9.394;2023-04-24T07:36:23;22.27;;;20.98;;
21505;SDS011;10914;48.886;9.394;2023-04-24T07:38:49;22.63;;;21.52;;
21505;SDS011;10914;48.886;9.394;2023-04-24T07:41:14;22.20;;;21.10;;
21505;SDS011;10914;48.886;9.394;2023-04-24T07:43:40;22.45;;;21.35;;
21505;SDS011;10914;48.886;9.394;2023-04-24T07:46:05;22.30;;;21.10;;
21505;SDS011;10914;48.886;9.394;2023-04-24T07:48:30;22.38;;;21.17;;
21505;SDS011;10914;48.886;9.394;2023-04-24T07:50:56;22.83;;;21.73;;
21505;SDS011;10914;48.886;9.394;2023-04-24T07:53:21;22.95;;;21.75;;
21505;SDS011;10914;48.886;9.394;2023-04-24T07:55:46;21.90;;;20.77;;
21505;SDS011;10914;48.886;9.394;2023-04-24T07:58:11;22.42;;;21.33;;
21505;SDS011;10914;48.886;9.394;2023-04-24T08:00:37;23.15;;;21.95;;
21505;SDS011;10914;48.886;9.394;2023-04-24T08:03:02;21.95;;;20.85;;
21505;SDS011;10914;48.886;9.394;2023-04-24T08:05:27;22.80;;;21.58;;
21505;SDS011;10914;48.886;9.394;2023-04-24T08:07:53;22.35;;;21.23;;
21505;SDS011;10914;48.886;9.394;2023-04-24T08:10:19;22.17;;;21.00;;
21505;SDS011;10914;48.886;9.394;2023-04-24T08:12:45;21.77;;;20.58;;
21505;SDS011;10914;48.886;9.394;2023-04-24T08:15:10;22.30;;;21.20;;
21505;SDS011;10914;48.886;9.394;2023-04-24T08:17:36;22.00;;;20.70;;
21505;SDS011;10914;48.886;9.394;2023-04-24T08:20:01;22.15;;;20.95;;
21505;SDS011;10914;48.886;9.394;2023-04-24T08:22:27;22.20;;;21.10;;
21505;SDS011;10914;48.886;9.394;2023-04-24T08:24:53;21.48;;;20.38;;
21505;SDS011;10914;48.886;9.394;2023-04-24T08:27:18;21.30;;;20.20;;
21505;SDS011;10914;48.886;9.394;2023-04-24T08:29:43;21.73;;;20.60;;
21505;SDS011;10914;48.886;9.394;2023-04-24T08:32:08;21.83;;;20.63;;
21505;SDS011;10914;48.886;9.394;2023-04-24T08:34:33;22.13;;;21.02;;
21505;SDS011;10914;48.886;9.394;2023-04-24T08:36:59;22.23;;;21.08;;
21505;SDS011;10914;48.886;9.394;2023-04-24T08:39:24;21.42;;;20.33;;
21505;SDS011;10914;48.886;9.394;2023-04-24T08:41:49;21.52;;;20.25;;
21505;SDS011;10914;48.886;9.394;2023-04-24T08:44:15;21.63;;;20.50;;
21505;SDS011;10914;48.886;9.394;2023-04-24T08:46:42;21.63;;;20.58;;
21505;SDS011;10914;48.886;9.394;2023-04-24T08:49:07;21.02;;;20.02;;
21505;SDS011;10914;48.886;9.394;2023-04-24T08:51:33;21.48;;;20.38;;
21505;SDS011;10914;48.886;9.394;2023-04-24T08:53:58;21.17;;;19.95;;
21505;SDS011;10914;48.886;9.394;2023-04-24T08:56:24;21.05;;;19.95;;
21505;SDS011;10914;48.886;9.394;2023-04-24T08:58:53;20.95;;;19.95;;
21505;SDS011;10914;48.886;9.394;2023-04-24T09:01:21;21.35;;;20.25;;
21505;SDS011;10914;48.886;9.394;2023-04-24T09:03:49;21.38;;;20.38;;
21505;SDS011;10914;48.886;9.394;2023-04-24T09:06:14;21.38;;;20.35;;
21505;SDS011;10914;48.886;9.394;2023-04-24T09:08:40;20.75;;;19.70;;
21505;SDS011;10914;48.886;9.394;2023-04-24T09:11:07;20.98;;;19.98;;
21505;SDS011;10914;48.886;9.394;2023-04-24T09:13:32;21.40;;;20.30;;
21505;SDS011;10914;48.886;9.394;2023-04-24T09:15:58;21.10;;;20.00;;
21505;SDS011;10914;48.886;9.394;2023-04-24T09:18:25;20.60;;;19.60;;
21505;SDS011;10914;48.886;9.394;2023-04-24T09:21:00;20.33;;;19.25;;
21505;SDS011;10914;48.886;9.394;2023-04-24T09:23:29;20.63;;;19.50;;
21505;SDS011;10914;48.886;9.394;2023-04-24T09:25:55;21.08;;;19.98;;
21505;SDS011;10914;48.886;9.394;2023-04-24T09:28:24;20.90;;;19.90;;
21505;SDS011;10914;48.886;9.394;2023-04-24T09:31:01;20.52;;;19.52;;
21505;SDS011;10914;48.886;9.394;2023-04-24T09:33:26;20.80;;;19.80;;
21505;SDS011;10914;48.886;9.394;2023-04-24T09:35:51;20.90;;;19.90;;
21505;SDS011;10914;48.886;9.394;2023-04-24T09:38:17;20.20;;;19.17;;
21505;SDS011;10914;48.886;9.394;2023-04-24T09:40:42;20.42;;;19.33;;
21505;SDS011;10914;48.886;9.394;2023-04-24T09:43:10;20.65;;;19.65;;
21505;SDS011;10914;48.886;9.394;2023-04-24T09:45:36;20.65;;;19.65;;
21505;SDS011;10914;48.886;9.394;2023-04-24T09:48:01;20.95;;;19.65;;
21505;SDS011;10914;48.886;9.394;2023-04-24T09:50:26;20.63;;;19.58;;
21505;SDS011;10914;48.886;9.394;2023-04-24T09:52:58;20.83;;;19.73;;
21505;SDS011;10914;48.886;9.394;2023-04-24T09:55:24;20.17;;;19.23;;
21505;SDS011;10914;48.886;9.394;2023-04-24T09:57:50;20.48;;;19.50;;
21505;SDS011;10914;48.886;9.394;2023-04-24T10:00:26;20.55;;;19.52;;
21505;SDS011;10914;48.886;9.394;2023-04-24T10:02:58;20.23;;;19.00;;
21505;SDS011;10914;48.886;9.394;2023-04-24T10:05:24;20.60;;;19.42;;
21505;SDS011;10914;48.886;9.394;2023-04-24T10:07:50;20.15;;;19.15;;
21505;SDS011;10914;48.886;9.394;2023-04-24T10:10:16;20.98;;;19.92;;
21505;SDS011;10914;48.886;9.394;2023-04-24T10:12:41;20.48;;;19.42;;
21505;SDS011;10914;48.886;9.394;2023-04-24T10:15:07;20.52;;;19.42;;
21505;SDS011;10914;48.886;9.394;2023-04-24T10:17:34;21.25;;;20.15;;
21505;SDS011;10914;48.886;9.394;2023-04-24T10:19:59;20.60;;;19.55;;
21505;SDS011;10914;48.886;9.394;2023-04-24T10:22:25;20.30;;;19.30;;
21505;SDS011;10914;48.886;9.394;2023-04-24T10:24:50;20.70;;;19.70;;
21505;SDS011;10914;48.886;9.394;2023-04-24T10:27:17;21.17;;;19.88;;
21505;SDS011;10914;48.886;9.394;2023-04-24T10:29:43;21.23;;;19.95;;
21505;SDS011;10914;48.886;9.394;2023-04-24T10:32:09;20.50;;;19.40;;
21505;SDS011;10914;48.886;9.394;2023-04-24T10:34:36;20.85;;;19.65;;
21505;SDS011;10914;48.886;9.394;2023-04-24T10:37:01;21.40;;;20.10;;
21505;SDS011;10914;48.886;9.394;2023-04-24T10:39:27;20.45;;;19.45;;
21505;SDS011;10914;48.886;9.394;2023-04-24T10:41:55;20.60;;;19.60;;
21505;SDS011;10914;48.886;9.394;2023-04-24T10:44:23;20.52;;;19.52;;
21505;SDS011;10914;48.886;9.394;2023-04-24T10:46:52;21.70;;;20.40;;
21505;SDS011;10914;48.886;9.394;2023-04-24T10:49:17;20.13;;;19.13;;
21505;SDS011;10914;48.886;9.394;2023-04-24T10:51:52;21.27;;;20.25;;
21505;SDS011;10914;48.886;9.394;2023-04-24T10:57:25;21.58;;;20.45;;
21505;SDS011;10914;48.886;9.394;2023-04-24T11:02:38;22.00;;;20.85;;
21505;SDS011;10914;48.886;9.394;2023-04-24T11:05:04;22.40;;;21.30;;
21505;SDS011;10914;48.886;9.394;2023-04-24T11:07:29;22.13;;;21.02;;
21505;SDS011;10914;48.886;9.394;2023-04-24T11:09:58;22.00;;;20.90;;
21505;SDS011;10914;48.886;9.394;2023-04-24T11:12:23;22.00;;;20.90;;
21505;SDS011;10914;48.886;9.394;2023-04-24T11:17:32;21.63;;;20.50;;
21505;SDS011;10914;48.886;9.394;2023-04-24T11:20:02;20.95;;;19.95;;
21505;SDS011;10914;48.886;9.394;2023-04-24T11:22:29;21.08;;;20.00;;
21505;SDS011;10914;48.886;9.394;2023-04-24T11:24:58;20.13;;;19.10;;
21505;SDS011;10914;48.886;9.394;2023-04-24T11:27:24;23.88;;;22.73;;
21505;SDS011;10914;48.886;9.394;2023-04-24T11:32:29;24.92;;;23.63;;
21505;SDS011;10914;48.886;9.394;2023-04-24T11:34:59;23.33;;;22.23;;
21505;SDS011;10914;48.886;9.394;2023-04-24T11:37:30;22.63;;;21.55;;
21505;SDS011;10914;48.886;9.394;2023-04-24T11:39:58;21.58;;;20.35;;
21505;SDS011;10914;48.886;9.394;2023-04-24T11:42:23;24.58;;;23.27;;
21505;SDS011;10914;48.886;9.394;2023-04-24T11:44:51;24.75;;;23.52;;
21505;SDS011;10914;48.886;9.394;2023-04-24T11:47:17;23.27;;;22.15;;
21505;SDS011;10914;48.886;9.394;2023-04-24T11:49:42;23.13;;;21.92;;
21505;SDS011;10914;48.886;9.394;2023-04-24T11:52:07;21.58;;;20.38;;
21505;SDS011;10914;48.886;9.394;2023-04-24T11:54:33;20.90;;;19.90;;
21505;SDS011;10914;48.886;9.394;2023-04-24T11:56:58;21.23;;;20.13;;
21505;SDS011;10914;48.886;9.394;2023-04-24T11:59:23;21.93;;;20.77;;
21505;SDS011;10914;48.886;9.394;2023-04-24T12:01:49;21.90;;;20.67;;
21505;SDS011;10914;48.886;9.394;2023-04-24T12:04:15;21.40;;;20.23;;
21505;SDS011;10914;48.886;9.394;2023-04-24T12:09:25;21.48;;;20.23;;
21505;SDS011;10914;48.886;9.394;2023-04-24T12:11:54;21.65;;;20.55;;
21505;SDS011;10914;48.886;9.394;2023-04-24T12:14:21;21.65;;;20.45;;
21505;SDS011;10914;48.886;9.394;2023-04-24T12:16:47;21.90;;;20.70;;
21505;SDS011;10914;48.886;9.394;2023-04-24T12:19:17;21.40;;;20.15;;
21505;SDS011;10914;48.886;9.394;2023-04-24T12:21:42;20.63;;;19.63;;
21505;SDS011;10914;48.886;9.394;2023-04-24T12:24:07;20.90;;;19.73;;
21505;SDS011;10914;48.886;9.394;2023-04-24T12:26:32;20.83;;;19.73;;
21505;SDS011;10914;48.886;9.394;2023-04-24T12:29:01;21.20;;;20.20;;
21505;SDS011;10914;48.886;9.394;2023-04-24T12:31:26;21.00;;;19.90;;
21505;SDS011;10914;48.886;9.394;2023-04-24T12:33:54;21.38;;;20.30;;
21505;SDS011;10914;48.886;9.394;2023-04-24T12:36:20;21.38;;;20.30;;
21505;SDS011;10914;48.886;9.394;2023-04-24T12:38:46;21.33;;;20.13;;
21505;SDS011;10914;48.886;9.394;2023-04-24T12:41:12;21.10;;;20.05;;
21505;SDS011;10914;48.886;9.394;2023-04-24T12:43:37;22.70;;;21.50;;
21505;SDS011;10914;48.886;9.394;2023-04-24T12:46:03;22.50;;;21.30;;
21505;SDS011;10914;48.886;9.394;2023-04-24T12:48:29;21.90;;;20.80;;
21505;SDS011;10914;48.886;9.394;2023-04-24T12:50:56;22.77;;;21.67;;
21505;SDS011;10914;48.886;9.394;2023-04-24T12:53:21;22.90;;;21.70;;
21505;SDS011;10914;48.886;9.394;2023-04-24T12:55:47;23.98;;;22.67;;
21505;SDS011;10914;48.886;9.394;2023-04-24T12:58:18;22.13;;;20.92;;
21505;SDS011;10914;48.886;9.394;2023-04-24T13:00:43;22.67;;;21.58;;
21505;SDS011;10914;48.886;9.394;2023-04-24T13:03:10;22.45;;;21.25;;
21505;SDS011;10914;48.886;9.394;2023-04-24T13:05:36;23.42;;;22.00;;
21505;SDS011;10914;48.886;9.394;2023-04-24T13:08:01;21.88;;;20.77;;
21505;SDS011;10914;48.886;9.394;2023-04-24T13:10:26;22.13;;;20.92;;
21505;SDS011;10914;48.886;9.394;2023-04-24T13:12:52;21.80;;;20.70;;
21505;SDS011;10914;48.886;9.394;2023-04-24T13:15:17;22.40;;;21.40;;
21505;SDS011;10914;48.886;9.394;2023-04-24T13:17:42;23.48;;;22.13;;
21505;SDS011;10914;48.886;9.394;2023-04-24T13:20:08;22.02;;;20.85;;
21505;SDS011;10914;48.886;9.394;2023-04-24T13:22:33;21.55;;;20.48;;
21505;SDS011;10914;48.886;9.394;2023-04-24T13:24:58;21.73;;;20.52;;
21505;SDS011;10914;48.886;9.394;2023-04-24T13:27:24;21.05;;;19.85;;
21505;SDS011;10914;48.886;9.394;2023-04-24T13:29:49;24.10;;;22.98;;
21505;SDS011;10914;48.886;9.394;2023-04-24T13:32:15;19.20;;;18.30;;
21505;SDS011;10914;48.886;9.394;2023-04-24T13:34:40;19.38;;;18.48;;
21505;SDS011;10914;48.886;9.394;2023-04-24T13:37:05;19.77;;;18.67;;
21505;SDS011;10914;48.886;9.394;2023-04-24T13:39:30;20.02;;;18.77;;
21505;SDS011;10914;48.886;9.394;2023-04-24T13:41:56;19.38;;;18.48;;
21505;SDS011;10914;48.886;9.394;2023-04-24T13:44:22;19.95;;;18.95;;
21505;SDS011;10914;48.886;9.394;2023-04-24T13:46:48;19.35;;;18.45;;
21505;SDS011;10914;48.886;9.394;2023-04-24T13:49:13;19.70;;;18.60;;
21505;SDS011;10914;48.886;9.394;2023-04-24T13:51:39;19.67;;;18.65;;
21505;SDS011;10914;48.886;9.394;2023-04-24T13:54:05;20.50;;;19.42;;
21505;SDS011;10914;48.886;9.394;2023-04-24T13:56:30;20.55;;;19.38;;
21505;SDS011;10914;48.886;9.394;2023-04-24T13:58:55;21.30;;;20.10;;
21505;SDS011;10914;48.886;9.394;2023-04-24T14:01:21;22.33;;;21.02;;
21505;SDS011;10914;48.886;9.394;2023-04-24T14:03:49;20.92;;;19.92;;
21505;SDS011;10914;48.886;9.394;2023-04-24T14:06:15;22.50;;;21.30;;
21505;SDS011;10914;48.886;9.394;2023-04-24T14:08:40;22.83;;;21.63;;
21505;SDS011;10914;48.886;9.394;2023-04-24T14:11:05;24.40;;;23.10;;
21505;SDS011;10914;48.886;9.394;2023-04-24T14:13:31;27.90;;;26.42;;
21505;SDS011;10914;48.886;9.394;2023-04-24T14:15:56;27.10;;;25.70;;
21505;SDS011;10914;48.886;9.394;2023-04-24T14:18:21;26.10;;;24.50;;
21505;SDS011;10914;48.886;9.394;2023-04-24T14:20:46;22.83;;;21.73;;
21505;SDS011;10914;48.886;9.394;2023-04-24T14:23:11;21.13;;;20.02;;
21505;SDS011;10914;48.886;9.394;2023-04-24T14:25:37;20.83;;;19.77;;